createdAt,value
2018-12-14T00:01:08.208Z,19.30
2018-12-14T00:03:39.365Z,20.17
2018-12-14T00:06:10.511Z,19.50
2018-12-14T00:08:39.694Z,19.63
2018-12-14T00:11:09.794Z,21.10
2018-12-14T00:13:39.020Z,20.97
2018-12-14T00:16:08.161Z,20.03
2018-12-14T00:18:37.343Z,19.03
2018-12-14T00:21:06.809Z,19.83
2018-12-14T00:23:35.957Z,21.10
2018-12-14T00:26:05.825Z,19.70
2018-12-14T00:28:34.994Z,19.17
2018-12-14T00:31:04.129Z,19.33
2018-12-14T00:33:33.277Z,20.30
2018-12-14T00:36:02.411Z,20.07
2018-12-14T00:38:31.779Z,18.73
2018-12-14T00:41:00.948Z,19.13
2018-12-14T00:43:30.119Z,19.27
2018-12-14T00:45:59.274Z,19.63
2018-12-14T00:48:28.453Z,18.50
2018-12-14T00:50:57.625Z,19.27
2018-12-14T00:53:26.763Z,19.47
2018-12-14T00:55:55.907Z,19.97
2018-12-14T00:58:25.045Z,18.27
2018-12-14T01:00:54.199Z,19.17
2018-12-14T01:03:23.335Z,19.07
2018-12-14T01:05:52.503Z,19.80
2018-12-14T01:08:21.641Z,21.13
2018-12-14T01:10:50.778Z,21.17
2018-12-14T01:13:19.919Z,19.43
2018-12-14T01:15:49.197Z,19.77
2018-12-14T01:18:18.353Z,19.97
2018-12-14T01:20:47.504Z,19.97
2018-12-14T01:23:16.655Z,20.47
2018-12-14T01:25:45.944Z,19.47
2018-12-14T01:28:15.977Z,18.77
2018-12-14T01:30:45.152Z,19.83
2018-12-14T01:33:14.294Z,19.17
2018-12-14T01:35:43.938Z,20.50
2018-12-14T01:38:13.096Z,18.63
2018-12-14T01:40:42.224Z,19.07
2018-12-14T01:43:11.382Z,19.97
2018-12-14T01:45:40.617Z,20.03
2018-12-14T01:48:09.770Z,20.50
2018-12-14T01:50:38.921Z,18.97
2018-12-14T01:53:08.054Z,19.03
2018-12-14T01:55:37.224Z,20.23
2018-12-14T01:58:06.360Z,20.13
2018-12-14T02:00:35.511Z,20.87
2018-12-14T02:03:04.676Z,20.93
2018-12-14T02:05:33.824Z,20.77
2018-12-14T02:08:03.009Z,20.00
2018-12-14T02:10:32.162Z,20.43
2018-12-14T02:13:01.302Z,20.40
2018-12-14T02:15:30.445Z,20.77
2018-12-14T02:17:59.591Z,20.90
2018-12-14T02:20:28.725Z,19.83
2018-12-14T02:22:57.884Z,20.80
2018-12-14T02:25:27.058Z,20.37
2018-12-14T02:27:56.205Z,20.13
2018-12-14T02:30:40.194Z,20.30
2018-12-14T02:33:09.380Z,20.83
2018-12-14T02:35:38.533Z,21.17
2018-12-14T02:38:07.677Z,20.57
2018-12-14T02:40:36.843Z,20.70
2018-12-14T02:43:06.005Z,20.27
2018-12-14T02:45:35.153Z,21.23
2018-12-14T02:48:04.309Z,21.43
2018-12-14T02:50:33.478Z,21.17
2018-12-14T02:53:02.645Z,20.80
2018-12-14T02:55:31.796Z,20.50
2018-12-14T02:58:00.947Z,21.63
2018-12-14T03:00:30.112Z,21.20
2018-12-14T03:02:59.332Z,21.53
2018-12-14T03:05:28.480Z,20.13
2018-12-14T03:07:57.643Z,20.27
2018-12-14T03:10:26.812Z,21.53
2018-12-14T03:12:55.955Z,21.63
2018-12-14T03:15:25.145Z,21.10
2018-12-14T03:17:54.377Z,20.77
2018-12-14T03:20:23.524Z,21.73
2018-12-14T03:22:52.703Z,21.60
2018-12-14T03:25:21.886Z,20.70
2018-12-14T03:27:51.094Z,21.27
2018-12-14T03:30:20.253Z,21.27
2018-12-14T03:32:49.438Z,20.70
2018-12-14T03:35:18.667Z,22.53
2018-12-14T03:37:47.836Z,20.50
2018-12-14T03:40:16.994Z,21.80
2018-12-14T03:42:46.149Z,31.80
2018-12-14T03:45:15.383Z,29.67
2018-12-14T03:47:44.545Z,22.67
2018-12-14T03:50:14.516Z,35.37
2018-12-14T03:52:43.667Z,28.60
2018-12-14T03:55:12.822Z,23.80
2018-12-14T03:57:41.989Z,22.67
2018-12-14T04:00:11.423Z,22.47
2018-12-14T04:02:40.605Z,22.10
2018-12-14T04:05:09.768Z,28.20
2018-12-14T04:07:38.932Z,67.60
2018-12-14T04:10:08.211Z,37.77
2018-12-14T04:12:41.539Z,30.47
2018-12-14T04:15:08.672Z,26.67
2018-12-14T04:17:38.815Z,25.07
2018-12-14T04:20:08.165Z,27.23
2018-12-14T04:22:37.352Z,24.50
2018-12-14T04:25:06.835Z,50.80
2018-12-14T04:27:35.977Z,31.93
2018-12-14T04:30:05.848Z,30.00
2018-12-14T04:32:34.996Z,30.17
2018-12-14T04:35:04.558Z,27.10
2018-12-14T04:37:33.733Z,28.87
2018-12-14T04:40:03.047Z,30.90
2018-12-14T04:42:32.633Z,25.57
2018-12-14T04:45:01.807Z,30.23
2018-12-14T04:47:30.984Z,48.87
2018-12-14T04:50:00.178Z,32.47
2018-12-14T04:52:29.489Z,45.00
2018-12-14T04:54:58.640Z,32.43
2018-12-14T04:57:27.812Z,28.13
2018-12-14T04:59:56.980Z,27.87
2018-12-14T05:02:26.368Z,38.33
2018-12-14T05:04:55.511Z,23.67
2018-12-14T05:07:24.677Z,24.60
2018-12-14T05:09:53.825Z,25.03
2018-12-14T05:12:23.009Z,26.30
2018-12-14T05:14:52.382Z,25.77
2018-12-14T05:17:21.541Z,26.00
2018-12-14T05:19:50.714Z,25.57
2018-12-14T05:22:19.870Z,25.23
2018-12-14T05:24:49.033Z,23.60
2018-12-14T05:27:18.199Z,23.90
2018-12-14T05:29:47.698Z,23.97
2018-12-14T05:32:16.876Z,24.70
2018-12-14T05:34:46.036Z,23.73
2018-12-14T05:37:16.125Z,24.47
2018-12-14T05:39:45.286Z,25.07
2018-12-14T05:42:14.432Z,25.63
2018-12-14T05:44:43.582Z,26.73
2018-12-14T05:47:12.754Z,26.97
2018-12-14T05:49:41.901Z,28.90
2018-12-14T05:52:13.029Z,26.90
2018-12-14T05:54:42.177Z,30.57
2018-12-14T05:57:11.337Z,30.63
2018-12-14T05:59:40.509Z,33.43
2018-12-14T06:02:09.663Z,32.53
2018-12-14T06:04:38.820Z,32.10
2018-12-14T06:07:07.969Z,31.00
2018-12-14T06:09:37.124Z,31.77
2018-12-14T06:12:06.849Z,32.57
2018-12-14T06:14:36.008Z,29.23
2018-12-14T06:17:05.178Z,40.10
2018-12-14T06:19:34.329Z,40.10
2018-12-14T06:22:03.641Z,29.60
2018-12-14T06:24:32.804Z,33.60
2018-12-14T06:27:01.948Z,29.50
2018-12-14T06:29:31.088Z,31.30
2018-12-14T06:32:00.240Z,34.23
2018-12-14T06:34:29.381Z,30.77
2018-12-14T06:36:58.896Z,30.27
2018-12-14T06:39:28.180Z,29.23
2018-12-14T06:41:57.565Z,34.03
2018-12-14T06:44:26.763Z,31.77
2018-12-14T06:46:57.010Z,27.00
2018-12-14T06:49:27.068Z,27.97
2018-12-14T06:51:56.261Z,27.60
2018-12-14T06:54:25.415Z,26.67
2018-12-14T06:56:54.564Z,26.77
2018-12-14T06:59:23.719Z,26.97
2018-12-14T07:01:52.889Z,26.13
2018-12-14T07:04:22.036Z,25.73
2018-12-14T07:06:51.258Z,25.83
2018-12-14T07:09:20.412Z,25.30
2018-12-14T07:11:49.584Z,27.63
2018-12-14T07:14:18.718Z,26.07
2018-12-14T07:16:47.904Z,25.23
2018-12-14T07:19:17.062Z,25.63
2018-12-14T07:21:46.223Z,27.10
2018-12-14T07:24:15.381Z,33.97
2018-12-14T07:26:44.668Z,28.13
2018-12-14T07:29:13.837Z,28.13
2018-12-14T07:31:42.981Z,34.73
2018-12-14T07:34:12.137Z,32.07
2018-12-14T07:36:41.283Z,33.23
2018-12-14T07:39:10.436Z,29.57
2018-12-14T07:41:39.610Z,26.90
2018-12-14T07:44:08.764Z,27.83
2018-12-14T07:46:38.059Z,26.27
2018-12-14T07:49:07.307Z,26.67
2018-12-14T07:51:36.516Z,26.93
2018-12-14T07:54:05.695Z,28.30
2018-12-14T07:56:34.844Z,27.63
2018-12-14T07:59:04.459Z,29.33
2018-12-14T08:01:33.626Z,31.67
2018-12-14T08:04:02.788Z,46.63
2018-12-14T08:06:31.942Z,32.47
2018-12-14T08:09:01.096Z,32.20
2018-12-14T08:11:31.452Z,34.77
2018-12-14T08:14:00.668Z,32.33
2018-12-14T08:16:29.829Z,31.57
2018-12-14T08:18:58.981Z,31.07
2018-12-14T08:21:28.221Z,26.83
2018-12-14T08:23:57.360Z,27.70
2018-12-14T08:26:26.514Z,27.30
2018-12-14T08:28:55.661Z,26.43
2018-12-14T08:31:24.807Z,25.37
2018-12-14T08:33:53.991Z,25.13
2018-12-14T08:36:23.142Z,23.97
2018-12-14T08:38:52.300Z,22.63
2018-12-14T08:41:21.569Z,21.67
2018-12-14T08:43:50.743Z,27.60
2018-12-14T08:46:19.911Z,27.47
2018-12-14T08:48:49.151Z,30.57
2018-12-14T08:51:18.529Z,28.10
2018-12-14T08:53:47.683Z,28.47
2018-12-14T08:56:16.832Z,29.87
2018-12-14T08:58:45.995Z,23.73
2018-12-14T09:01:15.140Z,24.80
2018-12-14T09:03:44.312Z,23.17
2018-12-14T09:06:13.467Z,22.47
2018-12-14T09:08:42.832Z,20.00
2018-12-14T09:11:11.975Z,20.43
2018-12-14T09:13:47.599Z,21.47
2018-12-14T09:16:13.408Z,20.47
2018-12-14T09:18:42.583Z,21.07
2018-12-14T09:21:11.730Z,22.33
2018-12-14T09:23:40.886Z,21.77
2018-12-14T09:26:10.031Z,20.43
2018-12-14T09:28:39.323Z,20.33
2018-12-14T09:31:08.513Z,20.40
2018-12-14T09:33:37.713Z,20.97
2018-12-14T09:36:07.023Z,19.37
2018-12-14T09:38:36.176Z,18.13
2018-12-14T09:41:05.503Z,17.73
2018-12-14T09:43:34.649Z,18.70
2018-12-14T09:46:03.822Z,18.50
2018-12-14T09:48:33.025Z,18.77
2018-12-14T09:51:02.200Z,17.97
2018-12-14T09:53:31.401Z,18.13
2018-12-14T09:56:00.556Z,17.97
2018-12-14T09:58:29.722Z,17.93
2018-12-14T10:00:58.868Z,17.83
2018-12-14T10:03:28.191Z,18.57
2018-12-14T10:05:57.350Z,17.93
2018-12-14T10:08:26.637Z,18.50
2018-12-14T10:10:56.044Z,19.37
2018-12-14T10:13:25.513Z,18.30
2018-12-14T10:15:55.098Z,21.03
2018-12-14T10:18:24.265Z,18.23
2018-12-14T10:20:53.425Z,18.00
2018-12-14T10:23:22.585Z,18.77
2018-12-14T10:25:51.741Z,17.73
2018-12-14T10:28:20.906Z,17.90
2018-12-14T10:30:50.697Z,18.63
2018-12-14T10:33:20.319Z,19.37
2018-12-14T10:35:49.446Z,19.13
2018-12-14T10:38:18.684Z,18.53
2018-12-14T10:40:47.865Z,21.50
2018-12-14T10:43:17.050Z,20.83
2018-12-14T10:45:46.545Z,20.37
2018-12-14T10:48:15.851Z,20.60
2018-12-14T10:50:45.025Z,18.97
2018-12-14T10:53:14.172Z,19.07
2018-12-14T10:55:43.322Z,19.20
2018-12-14T10:58:12.594Z,18.80
2018-12-14T11:00:47.046Z,23.10
2018-12-14T11:03:16.280Z,18.60
2018-12-14T11:05:45.533Z,19.20
2018-12-14T11:08:15.272Z,18.67
2018-12-14T11:10:44.488Z,18.20
2018-12-14T11:13:14.302Z,18.50
2018-12-14T11:15:43.497Z,17.67
2018-12-14T11:18:12.655Z,18.60
2018-12-14T11:20:41.790Z,18.10
2018-12-14T11:23:10.965Z,18.83
2018-12-14T11:25:40.111Z,19.17
2018-12-14T11:28:09.256Z,19.57
2018-12-14T11:30:38.426Z,19.27
2018-12-14T11:33:07.633Z,17.80
2018-12-14T11:35:36.884Z,18.40
2018-12-14T11:38:06.064Z,18.73
2018-12-14T11:40:35.210Z,18.97
2018-12-14T11:43:04.543Z,19.77
2018-12-14T11:45:33.721Z,19.77
2018-12-14T11:48:03.508Z,21.77
2018-12-14T11:50:32.714Z,22.37
2018-12-14T11:53:02.379Z,18.43
2018-12-14T11:55:31.529Z,18.67
2018-12-14T11:58:01.106Z,22.00
2018-12-14T12:00:30.267Z,22.83
2018-12-14T12:02:59.488Z,18.50
2018-12-14T12:05:28.656Z,17.10
2018-12-14T12:07:58.368Z,17.70
2018-12-14T12:10:28.116Z,18.70
2018-12-14T12:12:57.288Z,18.60
2018-12-14T12:15:26.477Z,19.13
2018-12-14T12:17:55.834Z,19.63
2018-12-14T12:20:25.088Z,17.00
2018-12-14T12:22:54.265Z,19.60
2018-12-14T12:25:23.443Z,19.13
2018-12-14T12:27:52.907Z,17.50
2018-12-14T12:30:22.048Z,21.40
2018-12-14T12:32:51.213Z,19.27
2018-12-14T12:35:20.388Z,18.43
2018-12-14T12:37:49.571Z,17.60
2018-12-14T12:40:18.773Z,17.43
2018-12-14T12:42:47.973Z,17.90
2018-12-14T12:45:17.177Z,18.13
2018-12-14T12:47:47.377Z,19.97
2018-12-14T12:50:16.847Z,21.23
2018-12-14T12:52:46.037Z,18.53
2018-12-14T12:55:15.231Z,19.95
2018-12-14T12:57:44.532Z,21.87
2018-12-14T13:00:13.738Z,19.50
2018-12-14T13:02:42.985Z,19.57
2018-12-14T13:05:12.173Z,17.93
2018-12-14T13:07:41.354Z,19.67
2018-12-14T13:10:10.538Z,18.47
2018-12-14T13:12:39.718Z,21.17
2018-12-14T13:15:09.121Z,20.17
2018-12-14T13:17:38.323Z,18.33
2018-12-14T13:20:07.680Z,19.10
2018-12-14T13:22:36.868Z,17.80
2018-12-14T13:25:06.238Z,17.80
2018-12-14T13:27:35.915Z,18.53
2018-12-14T13:30:05.936Z,19.63
2018-12-14T13:32:35.236Z,20.20
2018-12-14T13:35:04.766Z,20.20
2018-12-14T13:37:35.842Z,21.80
2018-12-14T13:40:08.231Z,19.30
2018-12-14T13:42:39.478Z,19.93
2018-12-14T13:45:12.134Z,18.33
2018-12-14T13:47:42.152Z,18.93
2018-12-14T13:50:11.477Z,18.07
2018-12-14T13:52:40.667Z,19.10
2018-12-14T13:55:10.277Z,19.03
2018-12-14T13:57:41.211Z,18.27
2018-12-14T14:00:11.159Z,19.17
2018-12-14T14:02:41.016Z,17.60
2018-12-14T14:05:11.269Z,19.97
2018-12-14T14:07:40.825Z,19.30
2018-12-14T14:10:10.025Z,18.67
2018-12-14T14:12:41.205Z,23.37
2018-12-14T14:15:10.604Z,22.90
2018-12-14T14:17:39.764Z,23.20
2018-12-14T14:20:09.312Z,22.57
2018-12-14T14:22:39.499Z,21.47
2018-12-14T14:25:09.417Z,20.03
2018-12-14T14:27:38.608Z,21.27
2018-12-14T14:30:08.532Z,20.30
2018-12-14T14:32:37.697Z,18.90
2018-12-14T14:35:07.521Z,19.53
2018-12-14T14:37:36.705Z,19.07
2018-12-14T14:40:06.406Z,21.30
2018-12-14T14:42:35.620Z,28.63
2018-12-14T14:45:05.487Z,20.90
2018-12-14T14:47:34.687Z,18.90
2018-12-14T14:50:04.301Z,21.90
2018-12-14T14:52:33.477Z,22.23
2018-12-14T14:55:03.696Z,29.80
2018-12-14T14:57:33.211Z,29.10
2018-12-14T15:00:02.402Z,23.10
2018-12-14T15:02:32.674Z,20.90
2018-12-14T15:05:01.879Z,19.30
2018-12-14T15:07:31.051Z,18.83
2018-12-14T15:10:00.351Z,22.17
2018-12-14T15:12:29.772Z,22.67
2018-12-14T15:15:06.203Z,22.80
2018-12-14T15:17:30.750Z,23.77
2018-12-14T15:19:59.945Z,22.80
2018-12-14T15:22:29.145Z,23.60
2018-12-14T15:24:58.347Z,22.50
2018-12-14T15:27:27.507Z,21.77
2018-12-14T15:29:56.672Z,23.20
2018-12-14T15:32:28.116Z,22.80
2018-12-14T15:34:57.456Z,21.97
2018-12-14T15:37:27.041Z,23.90
2018-12-14T15:39:56.226Z,23.90
2018-12-14T15:42:25.408Z,25.00
2018-12-14T15:44:54.628Z,30.67
2018-12-14T15:47:23.828Z,29.03
2018-12-14T15:49:53.125Z,31.43
2018-12-14T15:52:22.328Z,28.53
2018-12-14T15:54:52.194Z,44.97
2018-12-14T15:57:21.971Z,34.90
2018-12-14T15:59:51.268Z,25.10
2018-12-14T16:02:20.477Z,35.30
2018-12-14T16:04:49.650Z,24.63
2018-12-14T16:07:18.836Z,20.63
2018-12-14T16:09:48.040Z,20.73
2018-12-14T16:12:17.447Z,23.57
2018-12-14T16:14:47.565Z,21.40
2018-12-14T16:17:16.786Z,21.33
2018-12-14T16:19:45.978Z,24.07
2018-12-14T16:22:15.164Z,22.93
2018-12-14T16:24:44.354Z,27.90
2018-12-14T16:27:13.648Z,50.23
2018-12-14T16:29:42.899Z,31.87
2018-12-14T16:32:12.092Z,28.57
2018-12-14T16:34:42.392Z,23.47
2018-12-14T16:37:12.700Z,21.00
2018-12-14T16:39:42.180Z,19.83
2018-12-14T16:42:11.968Z,22.73
2018-12-14T16:44:41.207Z,23.00
2018-12-14T16:47:10.408Z,21.60
2018-12-14T16:49:40.241Z,21.93
2018-12-14T16:52:09.422Z,22.33
2018-12-14T16:54:38.605Z,21.47
2018-12-14T16:57:07.914Z,21.97
2018-12-14T16:59:37.094Z,20.97
2018-12-14T17:02:06.787Z,22.73
2018-12-14T17:04:35.975Z,23.40
2018-12-14T17:07:05.195Z,23.93
2018-12-14T17:09:34.416Z,23.73
2018-12-14T17:12:03.742Z,23.90
2018-12-14T17:14:32.972Z,21.83
2018-12-14T17:17:02.153Z,22.43
2018-12-14T17:19:33.071Z,22.70
2018-12-14T17:22:03.327Z,21.57
2018-12-14T17:24:34.185Z,21.63
2018-12-14T17:27:05.913Z,23.17
2018-12-14T17:29:35.460Z,23.10
2018-12-14T17:32:04.646Z,22.93
2018-12-14T17:34:33.937Z,22.20
2018-12-14T17:37:03.490Z,24.43
2018-12-14T17:39:34.796Z,37.63
2018-12-14T17:42:04.027Z,29.73
2018-12-14T17:44:33.232Z,26.20
2018-12-14T17:47:02.437Z,32.17
2018-12-14T17:49:31.650Z,29.57
2018-12-14T17:52:00.927Z,33.80
2018-12-14T17:54:30.169Z,31.27
2018-12-14T17:56:59.430Z,29.90
2018-12-14T17:59:28.663Z,27.70
2018-12-14T18:01:57.844Z,26.37
2018-12-14T18:04:27.048Z,23.40
2018-12-14T18:06:56.275Z,27.58
2018-12-14T18:09:25.453Z,22.83
2018-12-14T18:11:54.635Z,25.77
2018-12-14T18:14:23.815Z,23.40
2018-12-14T18:16:53.004Z,22.93
2018-12-14T18:19:22.177Z,22.87
2018-12-14T18:21:51.368Z,22.30
2018-12-14T18:24:20.592Z,23.37
2018-12-14T18:26:49.903Z,22.07
2018-12-14T18:29:19.221Z,21.83
2018-12-14T18:31:48.422Z,23.13
2018-12-14T18:34:17.792Z,23.70
2018-12-14T18:36:47.158Z,23.37
2018-12-14T18:39:16.345Z,23.77
2018-12-14T18:41:45.531Z,25.23
2018-12-14T18:44:15.116Z,23.43
2018-12-14T18:46:44.350Z,22.17
2018-12-14T18:49:14.704Z,21.53
2018-12-14T18:51:43.887Z,21.17
2018-12-14T18:54:13.102Z,22.83
2018-12-14T18:56:42.548Z,23.53
2018-12-14T18:59:11.920Z,26.47
2018-12-14T19:01:41.113Z,23.03
2018-12-14T19:04:10.680Z,23.83
2018-12-14T19:06:40.470Z,20.80
2018-12-14T19:09:09.694Z,22.60
2018-12-14T19:11:40.850Z,24.23
2018-12-14T19:14:10.048Z,22.80
2018-12-14T19:16:39.256Z,23.00
2018-12-14T19:19:09.040Z,21.47
2018-12-14T19:21:38.428Z,21.67
2018-12-14T19:24:07.612Z,23.40
2018-12-14T19:26:36.815Z,22.97
2018-12-14T19:29:06.009Z,23.40
2018-12-14T19:31:35.209Z,26.00
2018-12-14T19:34:05.247Z,23.13
2018-12-14T19:36:35.520Z,23.17
2018-12-14T19:39:06.138Z,23.97
2018-12-14T19:41:37.368Z,24.90
2018-12-14T19:44:06.567Z,26.87
2018-12-14T19:46:36.363Z,25.63
2018-12-14T19:49:05.579Z,25.33
2018-12-14T19:51:35.872Z,26.97
2018-12-14T19:54:05.706Z,27.77
2018-12-14T19:56:34.870Z,26.47
2018-12-14T19:59:04.086Z,49.37
2018-12-14T20:01:33.304Z,25.80
2018-12-14T20:04:02.516Z,28.30
2018-12-14T20:06:31.700Z,29.90
2018-12-14T20:09:00.871Z,31.73
2018-12-14T20:11:30.626Z,27.53
2018-12-14T20:13:59.972Z,25.40
2018-12-14T20:16:29.159Z,26.47
2018-12-14T20:18:58.761Z,24.50
2018-12-14T20:21:28.033Z,24.60
2018-12-14T20:23:57.257Z,31.60
2018-12-14T20:26:26.447Z,24.27
2018-12-14T20:28:55.749Z,28.97
2018-12-14T20:31:24.961Z,34.67
2018-12-14T20:33:54.150Z,33.20
2018-12-14T20:36:23.326Z,29.63
2018-12-14T20:38:52.497Z,30.80
2018-12-14T20:41:21.780Z,29.60
2018-12-14T20:43:50.952Z,30.93
2018-12-14T20:46:20.154Z,31.67
2018-12-14T20:48:56.019Z,30.90
2018-12-14T20:51:25.672Z,31.63
2018-12-14T20:53:55.738Z,31.37
2018-12-14T20:56:24.914Z,32.47
2018-12-14T20:58:54.093Z,33.80
2018-12-14T21:01:23.268Z,30.73
2018-12-14T21:03:52.475Z,33.97
2018-12-14T21:06:21.802Z,34.23
2018-12-14T21:08:52.000Z,35.53
2018-12-14T21:11:21.262Z,35.07
2018-12-14T21:13:50.458Z,32.00
2018-12-14T21:16:25.754Z,31.20
2018-12-14T21:18:50.831Z,31.10
2018-12-14T21:21:20.013Z,31.03
2018-12-14T21:23:49.297Z,31.63
2018-12-14T21:26:18.465Z,30.03
2018-12-14T21:28:47.649Z,31.27
2018-12-14T21:31:16.806Z,29.30
2018-12-14T21:33:45.996Z,29.90
2018-12-14T21:36:15.192Z,28.30
2018-12-14T21:38:44.551Z,28.57
2018-12-14T21:41:13.737Z,29.53
2018-12-14T21:43:42.929Z,30.50
2018-12-14T21:46:12.190Z,29.67
2018-12-14T21:48:41.395Z,28.77
2018-12-14T21:51:10.579Z,26.70
2018-12-14T21:53:39.770Z,27.57
2018-12-14T21:56:08.969Z,27.07
2018-12-14T21:58:38.156Z,31.30
2018-12-14T22:01:07.411Z,32.67
2018-12-14T22:03:36.612Z,31.50
2018-12-14T22:06:05.931Z,31.03
2018-12-14T22:08:35.085Z,27.63
2018-12-14T22:11:04.261Z,26.80
2018-12-14T22:13:33.435Z,26.93
2018-12-14T22:16:02.572Z,27.73
2018-12-14T22:18:31.722Z,29.63
2018-12-14T22:21:00.869Z,29.80
2018-12-14T22:23:30.026Z,30.10
2018-12-14T22:25:59.169Z,29.17
2018-12-14T22:28:28.299Z,27.43
2018-12-14T22:30:57.508Z,25.37
2018-12-14T22:33:26.779Z,26.00
2018-12-14T22:35:56.928Z,25.37
2018-12-14T22:38:26.319Z,23.87
2018-12-14T22:40:55.473Z,26.07
2018-12-14T22:43:24.615Z,30.77
2018-12-14T22:45:53.815Z,32.30
2018-12-14T22:48:24.117Z,31.87
2018-12-14T22:50:53.253Z,30.13
2018-12-14T22:53:22.439Z,31.77
2018-12-14T22:55:51.592Z,31.07
2018-12-14T22:58:20.750Z,29.10
2018-12-14T23:00:53.327Z,27.50
2018-12-14T23:03:22.489Z,27.57
2018-12-14T23:05:51.644Z,26.80
2018-12-14T23:08:21.113Z,26.63
2018-12-14T23:10:51.399Z,26.10
2018-12-14T23:13:20.758Z,25.10
2018-12-14T23:15:50.079Z,25.03
2018-12-14T23:18:19.222Z,24.83
2018-12-14T23:20:48.367Z,25.60
2018-12-14T23:23:17.488Z,24.10
2018-12-14T23:25:46.638Z,24.70
2018-12-14T23:28:15.828Z,25.50
2018-12-14T23:30:45.006Z,23.93
2018-12-14T23:33:14.908Z,24.07
2018-12-14T23:35:44.036Z,22.50
2018-12-14T23:38:13.219Z,22.70
2018-12-14T23:40:42.974Z,22.43
2018-12-14T23:43:12.113Z,22.10
2018-12-14T23:45:41.265Z,22.57
2018-12-14T23:48:10.414Z,22.93
2018-12-14T23:50:39.569Z,23.23
2018-12-14T23:53:08.725Z,22.27
2018-12-14T23:55:37.946Z,22.23
2018-12-14T23:58:07.168Z,22.53
